sensor_id;sensor_type;location;lat;lon;timestamp;P1;durP1;ratioP1;P2;durP2;ratioP2
14030;SDS011;7090;49.436;8.490;2023-07-31T00:01:59;6.47;;;6.18;;
14030;SDS011;7090;49.436;8.490;2023-07-31T00:04:25;6.25;;;5.95;;
14030;SDS011;7090;49.436;8.490;2023-07-31T00:06:50;6.40;;;6.10;;
14030;SDS011;7090;49.436;8.490;2023-07-31T00:09:16;6.45;;;6.15;;
14030;SDS011;7090;49.436;8.490;2023-07-31T00:11:41;7.05;;;6.72;;
14030;SDS011;7090;49.436;8.490;2023-07-31T00:14:07;6.50;;;6.20;;
14030;SDS011;7090;49.436;8.490;2023-07-31T00:16:33;6.53;;;6.22;;
14030;SDS011;7090;49.436;8.490;2023-07-31T00:18:58;6.72;;;6.35;;
14030;SDS011;7090;49.436;8.490;2023-07-31T00:21:24;7.90;;;6.82;;
14030;SDS011;7090;49.436;8.490;2023-07-31T00:23:49;9.23;;;6.60;;
14030;SDS011;7090;49.436;8.490;2023-07-31T00:26:15;6.32;;;6.13;;
14030;SDS011;7090;49.436;8.490;2023-07-31T00:28:41;6.75;;;6.35;;
14030;SDS011;7090;49.436;8.490;2023-07-31T00:31:06;7.00;;;6.60;;
14030;SDS011;7090;49.436;8.490;2023-07-31T00:33:34;6.55;;;6.25;;
14030;SDS011;7090;49.436;8.490;2023-07-31T00:36:00;6.80;;;6.50;;
14030;SDS011;7090;49.436;8.490;2023-07-31T00:38:26;7.50;;;6.97;;
14030;SDS011;7090;49.436;8.490;2023-07-31T00:40:51;6.28;;;6.00;;
14030;SDS011;7090;49.436;8.490;2023-07-31T00:43:17;6.57;;;6.28;;
14030;SDS011;7090;49.436;8.490;2023-07-31T00:45:42;6.10;;;5.90;;
14030;SDS011;7090;49.436;8.490;2023-07-31T00:48:08;6.70;;;6.30;;
14030;SDS011;7090;49.436;8.490;2023-07-31T00:50:34;6.55;;;6.13;;
14030;SDS011;7090;49.436;8.490;2023-07-31T00:53:00;7.00;;;6.55;;
14030;SDS011;7090;49.436;8.490;2023-07-31T00:55:26;6.60;;;6.32;;
14030;SDS011;7090;49.436;8.490;2023-07-31T00:57:52;7.03;;;6.63;;
14030;SDS011;7090;49.436;8.490;2023-07-31T01:00:20;7.72;;;7.10;;
14030;SDS011;7090;49.436;8.490;2023-07-31T01:02:46;6.78;;;6.43;;
14030;SDS011;7090;49.436;8.490;2023-07-31T01:05:13;6.45;;;6.13;;
14030;SDS011;7090;49.436;8.490;2023-07-31T01:07:42;6.18;;;5.82;;
14030;SDS011;7090;49.436;8.490;2023-07-31T01:10:21;6.13;;;5.93;;
14030;SDS011;7090;49.436;8.490;2023-07-31T01:12:51;7.75;;;6.50;;
14030;SDS011;7090;49.436;8.490;2023-07-31T01:15:18;6.82;;;6.25;;
14030;SDS011;7090;49.436;8.490;2023-07-31T01:17:44;6.85;;;6.45;;
14030;SDS011;7090;49.436;8.490;2023-07-31T01:20:16;6.00;;;5.80;;
14030;SDS011;7090;49.436;8.490;2023-07-31T01:25:42;6.78;;;6.22;;
14030;SDS011;7090;49.436;8.490;2023-07-31T01:28:14;6.43;;;6.13;;
14030;SDS011;7090;49.436;8.490;2023-07-31T01:30:47;6.93;;;6.53;;
14030;SDS011;7090;49.436;8.490;2023-07-31T01:33:14;5.95;;;5.75;;
14030;SDS011;7090;49.436;8.490;2023-07-31T01:35:42;6.00;;;5.80;;
14030;SDS011;7090;49.436;8.490;2023-07-31T01:38:09;6.68;;;6.38;;
14030;SDS011;7090;49.436;8.490;2023-07-31T01:40:35;6.57;;;6.18;;
14030;SDS011;7090;49.436;8.490;2023-07-31T01:43:00;6.05;;;5.85;;
14030;SDS011;7090;49.436;8.490;2023-07-31T01:45:26;7.47;;;7.07;;
14030;SDS011;7090;49.436;8.490;2023-07-31T01:47:52;6.90;;;6.60;;
14030;SDS011;7090;49.436;8.490;2023-07-31T01:50:17;6.35;;;6.05;;
14030;SDS011;7090;49.436;8.490;2023-07-31T01:52:43;7.20;;;6.65;;
14030;SDS011;7090;49.436;8.490;2023-07-31T01:55:08;6.40;;;6.10;;
14030;SDS011;7090;49.436;8.490;2023-07-31T01:57:36;7.35;;;6.95;;
14030;SDS011;7090;49.436;8.490;2023-07-31T02:00:01;6.35;;;6.15;;
14030;SDS011;7090;49.436;8.490;2023-07-31T02:02:27;8.07;;;6.50;;
14030;SDS011;7090;49.436;8.490;2023-07-31T02:04:53;6.45;;;6.15;;
14030;SDS011;7090;49.436;8.490;2023-07-31T02:07:18;7.63;;;6.63;;
14030;SDS011;7090;49.436;8.490;2023-07-31T02:09:44;6.75;;;6.35;;
14030;SDS011;7090;49.436;8.490;2023-07-31T02:12:11;6.70;;;6.40;;
14030;SDS011;7090;49.436;8.490;2023-07-31T02:14:39;6.85;;;6.43;;
14030;SDS011;7090;49.436;8.490;2023-07-31T02:17:05;7.28;;;6.55;;
14030;SDS011;7090;49.436;8.490;2023-07-31T02:19:30;6.57;;;6.28;;
14030;SDS011;7090;49.436;8.490;2023-07-31T02:21:56;6.80;;;6.50;;
14030;SDS011;7090;49.436;8.490;2023-07-31T02:24:22;7.18;;;6.78;;
14030;SDS011;7090;49.436;8.490;2023-07-31T02:26:47;7.70;;;7.18;;
14030;SDS011;7090;49.436;8.490;2023-07-31T02:29:13;6.60;;;6.30;;
14030;SDS011;7090;49.436;8.490;2023-07-31T02:31:38;6.90;;;6.60;;
14030;SDS011;7090;49.436;8.490;2023-07-31T02:34:04;7.53;;;6.93;;
14030;SDS011;7090;49.436;8.490;2023-07-31T02:36:29;7.10;;;6.68;;
14030;SDS011;7090;49.436;8.490;2023-07-31T02:38:55;6.97;;;6.57;;
14030;SDS011;7090;49.436;8.490;2023-07-31T02:41:21;6.97;;;6.40;;
14030;SDS011;7090;49.436;8.490;2023-07-31T02:43:46;6.10;;;5.80;;
14030;SDS011;7090;49.436;8.490;2023-07-31T02:46:12;6.75;;;6.35;;
14030;SDS011;7090;49.436;8.490;2023-07-31T02:48:37;7.05;;;6.68;;
14030;SDS011;7090;49.436;8.490;2023-07-31T02:51:03;6.60;;;6.00;;
14030;SDS011;7090;49.436;8.490;2023-07-31T02:53:28;6.22;;;6.00;;
14030;SDS011;7090;49.436;8.490;2023-07-31T02:55:54;6.85;;;6.40;;
14030;SDS011;7090;49.436;8.490;2023-07-31T02:58:19;6.63;;;6.25;;
14030;SDS011;7090;49.436;8.490;2023-07-31T03:00:45;6.20;;;5.80;;
14030;SDS011;7090;49.436;8.490;2023-07-31T03:03:10;6.15;;;5.95;;
14030;SDS011;7090;49.436;8.490;2023-07-31T03:05:36;6.20;;;6.00;;
14030;SDS011;7090;49.436;8.490;2023-07-31T03:08:02;6.72;;;6.32;;
14030;SDS011;7090;49.436;8.490;2023-07-31T03:10:28;6.85;;;6.55;;
14030;SDS011;7090;49.436;8.490;2023-07-31T03:12:54;6.75;;;6.18;;
14030;SDS011;7090;49.436;8.490;2023-07-31T03:15:20;6.72;;;6.32;;
14030;SDS011;7090;49.436;8.490;2023-07-31T03:17:45;7.70;;;6.70;;
14030;SDS011;7090;49.436;8.490;2023-07-31T03:20:11;7.68;;;7.13;;
14030;SDS011;7090;49.436;8.490;2023-07-31T03:22:36;6.68;;;6.10;;
14030;SDS011;7090;49.436;8.490;2023-07-31T03:25:03;6.95;;;6.38;;
14030;SDS011;7090;49.436;8.490;2023-07-31T03:27:29;7.35;;;6.85;;
14030;SDS011;7090;49.436;8.490;2023-07-31T03:29:54;6.65;;;6.00;;
14030;SDS011;7090;49.436;8.490;2023-07-31T03:32:20;7.15;;;6.57;;
14030;SDS011;7090;49.436;8.490;2023-07-31T03:34:46;6.20;;;6.00;;
14030;SDS011;7090;49.436;8.490;2023-07-31T03:37:11;6.35;;;6.10;;
14030;SDS011;7090;49.436;8.490;2023-07-31T03:39:37;6.93;;;6.40;;
14030;SDS011;7090;49.436;8.490;2023-07-31T03:42:03;6.57;;;6.22;;
14030;SDS011;7090;49.436;8.490;2023-07-31T03:44:29;7.13;;;6.50;;
14030;SDS011;7090;49.436;8.490;2023-07-31T03:46:54;6.35;;;6.05;;
14030;SDS011;7090;49.436;8.490;2023-07-31T03:49:20;7.35;;;6.70;;
14030;SDS011;7090;49.436;8.490;2023-07-31T03:51:46;7.35;;;6.65;;
14030;SDS011;7090;49.436;8.490;2023-07-31T03:54:11;7.18;;;6.80;;
14030;SDS011;7090;49.436;8.490;2023-07-31T03:56:38;6.97;;;6.60;;
14030;SDS011;7090;49.436;8.490;2023-07-31T03:59:03;6.68;;;6.25;;
14030;SDS011;7090;49.436;8.490;2023-07-31T04:01:29;7.00;;;6.60;;
14030;SDS011;7090;49.436;8.490;2023-07-31T04:03:55;7.80;;;7.10;;
14030;SDS011;7090;49.436;8.490;2023-07-31T04:06:20;7.65;;;7.07;;
14030;SDS011;7090;49.436;8.490;2023-07-31T04:08:46;10.48;;;7.65;;
14030;SDS011;7090;49.436;8.490;2023-07-31T04:11:11;6.90;;;6.60;;
14030;SDS011;7090;49.436;8.490;2023-07-31T04:13:37;6.93;;;6.53;;
14030;SDS011;7090;49.436;8.490;2023-07-31T04:16:03;7.22;;;6.68;;
14030;SDS011;7090;49.436;8.490;2023-07-31T04:18:29;6.53;;;6.20;;
14030;SDS011;7090;49.436;8.490;2023-07-31T04:20:56;6.32;;;6.13;;
14030;SDS011;7090;49.436;8.490;2023-07-31T04:23:23;6.13;;;5.93;;
14030;SDS011;7090;49.436;8.490;2023-07-31T04:25:49;6.82;;;6.35;;
14030;SDS011;7090;49.436;8.490;2023-07-31T04:28:14;7.22;;;6.70;;
14030;SDS011;7090;49.436;8.490;2023-07-31T04:30:40;7.30;;;6.90;;
14030;SDS011;7090;49.436;8.490;2023-07-31T04:33:06;6.53;;;6.25;;
14030;SDS011;7090;49.436;8.490;2023-07-31T04:35:31;6.60;;;6.30;;
14030;SDS011;7090;49.436;8.490;2023-07-31T04:37:57;6.22;;;6.03;;
14030;SDS011;7090;49.436;8.490;2023-07-31T04:40:22;6.97;;;6.47;;
14030;SDS011;7090;49.436;8.490;2023-07-31T04:42:48;6.88;;;6.40;;
14030;SDS011;7090;49.436;8.490;2023-07-31T04:45:14;6.72;;;6.43;;
14030;SDS011;7090;49.436;8.490;2023-07-31T04:47:40;6.72;;;6.30;;
14030;SDS011;7090;49.436;8.490;2023-07-31T04:50:05;7.07;;;6.72;;
14030;SDS011;7090;49.436;8.490;2023-07-31T04:52:31;6.90;;;6.60;;
14030;SDS011;7090;49.436;8.490;2023-07-31T04:54:57;6.75;;;6.45;;
14030;SDS011;7090;49.436;8.490;2023-07-31T04:57:22;7.20;;;6.80;;
14030;SDS011;7090;49.436;8.490;2023-07-31T04:59:48;7.70;;;7.15;;
14030;SDS011;7090;49.436;8.490;2023-07-31T05:02:13;6.82;;;6.38;;
14030;SDS011;7090;49.436;8.490;2023-07-31T05:04:39;7.03;;;6.72;;
14030;SDS011;7090;49.436;8.490;2023-07-31T05:07:05;7.35;;;6.88;;
14030;SDS011;7090;49.436;8.490;2023-07-31T05:09:30;8.18;;;7.60;;
14030;SDS011;7090;49.436;8.490;2023-07-31T05:11:56;7.93;;;7.32;;
14030;SDS011;7090;49.436;8.490;2023-07-31T05:14:22;7.65;;;7.15;;
14030;SDS011;7090;49.436;8.490;2023-07-31T05:16:48;7.53;;;7.07;;
14030;SDS011;7090;49.436;8.490;2023-07-31T05:19:14;6.90;;;6.60;;
14030;SDS011;7090;49.436;8.490;2023-07-31T05:21:40;7.78;;;7.13;;
14030;SDS011;7090;49.436;8.490;2023-07-31T05:24:06;6.45;;;6.15;;
14030;SDS011;7090;49.436;8.490;2023-07-31T05:26:31;8.30;;;7.60;;
14030;SDS011;7090;49.436;8.490;2023-07-31T05:28:57;7.50;;;7.00;;
14030;SDS011;7090;49.436;8.490;2023-07-31T05:31:23;7.18;;;6.75;;
14030;SDS011;7090;49.436;8.490;2023-07-31T05:33:49;8.15;;;7.55;;
14030;SDS011;7090;49.436;8.490;2023-07-31T05:36:16;7.10;;;6.80;;
14030;SDS011;7090;49.436;8.490;2023-07-31T05:38:42;7.40;;;7.00;;
14030;SDS011;7090;49.436;8.490;2023-07-31T05:41:09;7.50;;;6.82;;
14030;SDS011;7090;49.436;8.490;2023-07-31T05:43:36;7.28;;;6.88;;
14030;SDS011;7090;49.436;8.490;2023-07-31T05:46:01;7.03;;;6.72;;
14030;SDS011;7090;49.436;8.490;2023-07-31T05:48:27;8.07;;;7.47;;
14030;SDS011;7090;49.436;8.490;2023-07-31T05:50:52;7.57;;;7.18;;
14030;SDS011;7090;49.436;8.490;2023-07-31T05:53:18;7.60;;;7.10;;
14030;SDS011;7090;49.436;8.490;2023-07-31T05:55:44;8.20;;;7.50;;
14030;SDS011;7090;49.436;8.490;2023-07-31T05:58:09;7.00;;;6.70;;
14030;SDS011;7090;49.436;8.490;2023-07-31T06:00:35;8.82;;;7.00;;
14030;SDS011;7090;49.436;8.490;2023-07-31T06:03:01;7.40;;;6.70;;
14030;SDS011;7090;49.436;8.490;2023-07-31T06:05:26;7.43;;;6.75;;
14030;SDS011;7090;49.436;8.490;2023-07-31T06:07:54;7.32;;;6.75;;
14030;SDS011;7090;49.436;8.490;2023-07-31T06:10:19;7.00;;;6.60;;
14030;SDS011;7090;49.436;8.490;2023-07-31T06:12:45;7.65;;;7.28;;
14030;SDS011;7090;49.436;8.490;2023-07-31T06:15:10;7.40;;;7.00;;
14030;SDS011;7090;49.436;8.490;2023-07-31T06:17:36;7.55;;;7.05;;
14030;SDS011;7090;49.436;8.490;2023-07-31T06:20:02;7.70;;;7.30;;
14030;SDS011;7090;49.436;8.490;2023-07-31T06:22:30;7.22;;;6.72;;
14030;SDS011;7090;49.436;8.490;2023-07-31T06:24:55;9.02;;;6.72;;
14030;SDS011;7090;49.436;8.490;2023-07-31T06:27:21;7.70;;;7.25;;
14030;SDS011;7090;49.436;8.490;2023-07-31T06:29:47;7.10;;;6.80;;
14030;SDS011;7090;49.436;8.490;2023-07-31T06:32:13;7.15;;;6.75;;
14030;SDS011;7090;49.436;8.490;2023-07-31T06:34:38;8.00;;;7.40;;
14030;SDS011;7090;49.436;8.490;2023-07-31T06:37:04;7.72;;;7.32;;
14030;SDS011;7090;49.436;8.490;2023-07-31T06:39:30;7.55;;;7.15;;
14030;SDS011;7090;49.436;8.490;2023-07-31T06:41:55;9.10;;;7.28;;
14030;SDS011;7090;49.436;8.490;2023-07-31T06:44:21;6.95;;;6.55;;
14030;SDS011;7090;49.436;8.490;2023-07-31T06:46:46;7.38;;;6.90;;
14030;SDS011;7090;49.436;8.490;2023-07-31T06:49:12;6.68;;;6.38;;
14030;SDS011;7090;49.436;8.490;2023-07-31T06:51:40;7.75;;;7.15;;
14030;SDS011;7090;49.436;8.490;2023-07-31T06:54:06;7.10;;;6.63;;
14030;SDS011;7090;49.436;8.490;2023-07-31T06:56:32;6.88;;;6.53;;
14030;SDS011;7090;49.436;8.490;2023-07-31T06:58:58;7.32;;;6.95;;
14030;SDS011;7090;49.436;8.490;2023-07-31T07:01:24;7.43;;;6.93;;
14030;SDS011;7090;49.436;8.490;2023-07-31T07:03:49;7.10;;;6.60;;
14030;SDS011;7090;49.436;8.490;2023-07-31T07:06:16;7.38;;;6.90;;
14030;SDS011;7090;49.436;8.490;2023-07-31T07:08:42;7.80;;;7.10;;
14030;SDS011;7090;49.436;8.490;2023-07-31T07:11:08;6.65;;;6.35;;
14030;SDS011;7090;49.436;8.490;2023-07-31T07:13:34;8.00;;;7.20;;
14030;SDS011;7090;49.436;8.490;2023-07-31T07:15:59;8.25;;;7.72;;
14030;SDS011;7090;49.436;8.490;2023-07-31T07:18:25;8.18;;;7.68;;
14030;SDS011;7090;49.436;8.490;2023-07-31T07:20:51;7.30;;;6.80;;
14030;SDS011;7090;49.436;8.490;2023-07-31T07:23:17;7.88;;;7.32;;
14030;SDS011;7090;49.436;8.490;2023-07-31T07:25:44;7.55;;;7.10;;
14030;SDS011;7090;49.436;8.490;2023-07-31T07:28:11;7.85;;;7.05;;
14030;SDS011;7090;49.436;8.490;2023-07-31T07:30:36;8.10;;;7.47;;
14030;SDS011;7090;49.436;8.490;2023-07-31T07:33:02;7.78;;;7.25;;
14030;SDS011;7090;49.436;8.490;2023-07-31T07:35:28;7.88;;;7.40;;
14030;SDS011;7090;49.436;8.490;2023-07-31T07:37:54;7.43;;;7.03;;
14030;SDS011;7090;49.436;8.490;2023-07-31T07:40:20;7.13;;;6.75;;
14030;SDS011;7090;49.436;8.490;2023-07-31T07:42:46;6.60;;;6.30;;
14030;SDS011;7090;49.436;8.490;2023-07-31T07:45:12;7.57;;;7.18;;
14030;SDS011;7090;49.436;8.490;2023-07-31T07:47:38;7.70;;;7.30;;
14030;SDS011;7090;49.436;8.490;2023-07-31T07:50:05;7.85;;;7.45;;
14030;SDS011;7090;49.436;8.490;2023-07-31T07:52:31;7.65;;;7.13;;
14030;SDS011;7090;49.436;8.490;2023-07-31T07:54:57;7.63;;;7.05;;
14030;SDS011;7090;49.436;8.490;2023-07-31T07:57:22;7.15;;;6.85;;
14030;SDS011;7090;49.436;8.490;2023-07-31T07:59:48;8.32;;;7.63;;
14030;SDS011;7090;49.436;8.490;2023-07-31T08:02:13;6.95;;;6.40;;
14030;SDS011;7090;49.436;8.490;2023-07-31T08:04:39;6.93;;;6.63;;
14030;SDS011;7090;49.436;8.490;2023-07-31T08:07:05;7.60;;;7.20;;
14030;SDS011;7090;49.436;8.490;2023-07-31T08:09:30;7.15;;;6.72;;
14030;SDS011;7090;49.436;8.490;2023-07-31T08:11:56;8.05;;;7.32;;
14030;SDS011;7090;49.436;8.490;2023-07-31T08:14:26;7.35;;;6.75;;
14030;SDS011;7090;49.436;8.490;2023-07-31T08:16:52;8.13;;;7.38;;
14030;SDS011;7090;49.436;8.490;2023-07-31T08:19:18;7.43;;;6.93;;
14030;SDS011;7090;49.436;8.490;2023-07-31T08:21:43;7.65;;;7.03;;
14030;SDS011;7090;49.436;8.490;2023-07-31T08:24:09;7.40;;;6.90;;
14030;SDS011;7090;49.436;8.490;2023-07-31T08:26:35;11.95;;;7.75;;
14030;SDS011;7090;49.436;8.490;2023-07-31T08:29:00;8.00;;;7.40;;
14030;SDS011;7090;49.436;8.490;2023-07-31T08:31:26;8.68;;;7.88;;
14030;SDS011;7090;49.436;8.490;2023-07-31T08:33:52;7.45;;;6.93;;
14030;SDS011;7090;49.436;8.490;2023-07-31T08:36:17;7.72;;;7.20;;
14030;SDS011;7090;49.436;8.490;2023-07-31T08:38:44;7.90;;;7.20;;
14030;SDS011;7090;49.436;8.490;2023-07-31T08:41:10;11.13;;;7.63;;
14030;SDS011;7090;49.436;8.490;2023-07-31T08:43:37;8.23;;;7.60;;
14030;SDS011;7090;49.436;8.490;2023-07-31T08:46:03;7.28;;;6.88;;
14030;SDS011;7090;49.436;8.490;2023-07-31T08:48:29;8.05;;;7.35;;
14030;SDS011;7090;49.436;8.490;2023-07-31T08:50:56;7.40;;;6.95;;
14030;SDS011;7090;49.436;8.490;2023-07-31T08:53:22;7.68;;;7.28;;
14030;SDS011;7090;49.436;8.490;2023-07-31T08:55:48;6.80;;;6.40;;
14030;SDS011;7090;49.436;8.490;2023-07-31T08:58:14;7.85;;;7.35;;
14030;SDS011;7090;49.436;8.490;2023-07-31T09:00:40;7.25;;;6.72;;
14030;SDS011;7090;49.436;8.490;2023-07-31T09:03:09;7.35;;;7.03;;
14030;SDS011;7090;49.436;8.490;2023-07-31T09:05:42;8.07;;;7.47;;
14030;SDS011;7090;49.436;8.490;2023-07-31T09:08:10;8.30;;;7.72;;
14030;SDS011;7090;49.436;8.490;2023-07-31T09:10:43;7.72;;;7.22;;
14030;SDS011;7090;49.436;8.490;2023-07-31T09:13:11;7.72;;;7.13;;
14030;SDS011;7090;49.436;8.490;2023-07-31T09:15:37;8.95;;;7.30;;
14030;SDS011;7090;49.436;8.490;2023-07-31T09:18:04;7.35;;;6.75;;
14030;SDS011;7090;49.436;8.490;2023-07-31T09:20:30;7.30;;;6.70;;
14030;SDS011;7090;49.436;8.490;2023-07-31T09:23:00;7.05;;;6.55;;
14030;SDS011;7090;49.436;8.490;2023-07-31T09:25:35;6.82;;;6.43;;
14030;SDS011;7090;49.436;8.490;2023-07-31T09:28:03;8.10;;;7.38;;
14030;SDS011;7090;49.436;8.490;2023-07-31T09:30:30;8.65;;;7.97;;
14030;SDS011;7090;49.436;8.490;2023-07-31T09:33:09;6.80;;;6.50;;
14030;SDS011;7090;49.436;8.490;2023-07-31T09:35:34;7.85;;;7.13;;
14030;SDS011;7090;49.436;8.490;2023-07-31T09:38:02;8.23;;;7.63;;
14030;SDS011;7090;49.436;8.490;2023-07-31T09:40:36;8.05;;;7.32;;
14030;SDS011;7090;49.436;8.490;2023-07-31T09:43:09;7.47;;;7.07;;
14030;SDS011;7090;49.436;8.490;2023-07-31T09:45:40;8.32;;;7.53;;
14030;SDS011;7090;49.436;8.490;2023-07-31T09:48:07;8.68;;;7.85;;
14030;SDS011;7090;49.436;8.490;2023-07-31T09:50:36;7.72;;;7.13;;
14030;SDS011;7090;49.436;8.490;2023-07-31T09:53:03;7.95;;;7.25;;
14030;SDS011;7090;49.436;8.490;2023-07-31T09:55:29;8.50;;;7.80;;
14030;SDS011;7090;49.436;8.490;2023-07-31T09:57:56;8.02;;;7.38;;
14030;SDS011;7090;49.436;8.490;2023-07-31T10:00:23;8.25;;;7.65;;
14030;SDS011;7090;49.436;8.490;2023-07-31T10:02:53;7.55;;;7.10;;
14030;SDS011;7090;49.436;8.490;2023-07-31T10:05:19;6.55;;;6.25;;
14030;SDS011;7090;49.436;8.490;2023-07-31T10:07:49;8.63;;;7.97;;
14030;SDS011;7090;49.436;8.490;2023-07-31T10:10:19;11.50;;;8.00;;
14030;SDS011;7090;49.436;8.490;2023-07-31T10:12:46;7.80;;;7.28;;
14030;SDS011;7090;49.436;8.490;2023-07-31T10:15:14;7.80;;;7.13;;
14030;SDS011;7090;49.436;8.490;2023-07-31T10:17:40;8.23;;;7.53;;
14030;SDS011;7090;49.436;8.490;2023-07-31T10:20:06;7.68;;;7.18;;
14030;SDS011;7090;49.436;8.490;2023-07-31T10:22:33;7.00;;;6.60;;
14030;SDS011;7090;49.436;8.490;2023-07-31T10:24:59;8.07;;;7.43;;
14030;SDS011;7090;49.436;8.490;2023-07-31T10:27:25;8.02;;;7.30;;
14030;SDS011;7090;49.436;8.490;2023-07-31T10:29:52;7.85;;;7.28;;
14030;SDS011;7090;49.436;8.490;2023-07-31T10:32:19;7.25;;;6.85;;
14030;SDS011;7090;49.436;8.490;2023-07-31T10:34:46;6.13;;;5.82;;
14030;SDS011;7090;49.436;8.490;2023-07-31T10:37:29;7.00;;;6.40;;
14030;SDS011;7090;49.436;8.490;2023-07-31T10:42:34;6.38;;;6.13;;
14030;SDS011;7090;49.436;8.490;2023-07-31T10:47:31;7.45;;;6.95;;
14030;SDS011;7090;49.436;8.490;2023-07-31T10:52:58;7.55;;;7.03;;
14030;SDS011;7090;49.436;8.490;2023-07-31T10:58:18;7.78;;;6.63;;
14030;SDS011;7090;49.436;8.490;2023-07-31T11:00:43;7.18;;;6.68;;
14030;SDS011;7090;49.436;8.490;2023-07-31T11:08:20;7.53;;;6.95;;
14030;SDS011;7090;49.436;8.490;2023-07-31T11:10:47;7.20;;;6.70;;
14030;SDS011;7090;49.436;8.490;2023-07-31T11:15:57;7.90;;;7.40;;
14030;SDS011;7090;49.436;8.490;2023-07-31T11:18:23;8.23;;;7.35;;
14030;SDS011;7090;49.436;8.490;2023-07-31T11:20:49;7.35;;;6.78;;
14030;SDS011;7090;49.436;8.490;2023-07-31T11:23:16;6.85;;;6.47;;
14030;SDS011;7090;49.436;8.490;2023-07-31T11:25:42;10.43;;;7.30;;
14030;SDS011;7090;49.436;8.490;2023-07-31T11:28:09;6.88;;;6.50;;
14030;SDS011;7090;49.436;8.490;2023-07-31T11:30:36;6.65;;;6.35;;
14030;SDS011;7090;49.436;8.490;2023-07-31T11:33:03;6.18;;;5.88;;
14030;SDS011;7090;49.436;8.490;2023-07-31T11:35:33;7.70;;;6.90;;
14030;SDS011;7090;49.436;8.490;2023-07-31T11:38:00;6.68;;;5.95;;
14030;SDS011;7090;49.436;8.490;2023-07-31T11:40:26;5.55;;;5.35;;
14030;SDS011;7090;49.436;8.490;2023-07-31T11:42:55;6.45;;;5.90;;
14030;SDS011;7090;49.436;8.490;2023-07-31T11:45:24;6.63;;;6.13;;
14030;SDS011;7090;49.436;8.490;2023-07-31T11:47:51;6.82;;;6.22;;
14030;SDS011;7090;49.436;8.490;2023-07-31T11:50:18;6.80;;;6.40;;
14030;SDS011;7090;49.436;8.490;2023-07-31T11:52:44;7.35;;;6.75;;
14030;SDS011;7090;49.436;8.490;2023-07-31T11:55:11;6.80;;;6.40;;
14030;SDS011;7090;49.436;8.490;2023-07-31T11:57:38;7.35;;;6.93;;
14030;SDS011;7090;49.436;8.490;2023-07-31T12:00:06;8.10;;;7.60;;
14030;SDS011;7090;49.436;8.490;2023-07-31T12:02:34;7.25;;;6.85;;
14030;SDS011;7090;49.436;8.490;2023-07-31T12:05:00;7.50;;;7.00;;
14030;SDS011;7090;49.436;8.490;2023-07-31T12:07:27;6.90;;;6.50;;
14030;SDS011;7090;49.436;8.490;2023-07-31T12:09:53;7.72;;;6.90;;
14030;SDS011;7090;49.436;8.490;2023-07-31T12:12:20;8.15;;;7.45;;
14030;SDS011;7090;49.436;8.490;2023-07-31T12:14:47;8.55;;;7.95;;
14030;SDS011;7090;49.436;8.490;2023-07-31T12:17:13;8.23;;;7.70;;
14030;SDS011;7090;49.436;8.490;2023-07-31T12:19:40;8.23;;;7.82;;
14030;SDS011;7090;49.436;8.490;2023-07-31T12:22:12;7.53;;;7.13;;
14030;SDS011;7090;49.436;8.490;2023-07-31T12:24:44;9.05;;;8.27;;
14030;SDS011;7090;49.436;8.490;2023-07-31T12:27:13;7.78;;;7.18;;
14030;SDS011;7090;49.436;8.490;2023-07-31T12:29:40;8.20;;;7.70;;
14030;SDS011;7090;49.436;8.490;2023-07-31T12:32:23;8.32;;;7.70;;
14030;SDS011;7090;49.436;8.490;2023-07-31T12:34:50;7.97;;;7.40;;
14030;SDS011;7090;49.436;8.490;2023-07-31T12:37:16;8.70;;;8.07;;
14030;SDS011;7090;49.436;8.490;2023-07-31T12:39:41;8.00;;;7.43;;
14030;SDS011;7090;49.436;8.490;2023-07-31T12:42:07;9.05;;;8.35;;
14030;SDS011;7090;49.436;8.490;2023-07-31T12:44:33;7.95;;;7.50;;
14030;SDS011;7090;49.436;8.490;2023-07-31T12:46:58;8.32;;;7.63;;
14030;SDS011;7090;49.436;8.490;2023-07-31T12:49:24;8.13;;;7.63;;
14030;SDS011;7090;49.436;8.490;2023-07-31T12:51:49;7.32;;;6.93;;
14030;SDS011;7090;49.436;8.490;2023-07-31T12:54:15;7.75;;;7.25;;
14030;SDS011;7090;49.436;8.490;2023-07-31T12:56:41;7.30;;;7.00;;
14030;SDS011;7090;49.436;8.490;2023-07-31T12:59:06;7.95;;;7.55;;
14030;SDS011;7090;49.436;8.490;2023-07-31T13:01:32;7.75;;;7.32;;
14030;SDS011;7090;49.436;8.490;2023-07-31T13:03:57;11.27;;;7.40;;
14030;SDS011;7090;49.436;8.490;2023-07-31T13:06:24;8.05;;;7.55;;
14030;SDS011;7090;49.436;8.490;2023-07-31T13:08:51;8.05;;;7.40;;
14030;SDS011;7090;49.436;8.490;2023-07-31T13:11:16;8.40;;;7.70;;
14030;SDS011;7090;49.436;8.490;2023-07-31T13:13:42;7.80;;;7.40;;
14030;SDS011;7090;49.436;8.490;2023-07-31T13:16:07;7.55;;;7.15;;
14030;SDS011;7090;49.436;8.490;2023-07-31T13:18:33;7.82;;;7.15;;
14030;SDS011;7090;49.436;8.490;2023-07-31T13:20:59;8.23;;;7.65;;
14030;SDS011;7090;49.436;8.490;2023-07-31T13:23:24;6.95;;;6.60;;
14030;SDS011;7090;49.436;8.490;2023-07-31T13:25:50;7.18;;;6.68;;
14030;SDS011;7090;49.436;8.490;2023-07-31T13:28:15;8.05;;;7.50;;
14030;SDS011;7090;49.436;8.490;2023-07-31T13:30:41;7.50;;;7.00;;
14030;SDS011;7090;49.436;8.490;2023-07-31T13:33:06;8.32;;;7.75;;
14030;SDS011;7090;49.436;8.490;2023-07-31T13:35:32;7.80;;;7.20;;
14030;SDS011;7090;49.436;8.490;2023-07-31T13:37:57;7.60;;;7.20;;
14030;SDS011;7090;49.436;8.490;2023-07-31T13:40:23;7.80;;;7.40;;
14030;SDS011;7090;49.436;8.490;2023-07-31T13:42:48;8.00;;;7.50;;
14030;SDS011;7090;49.436;8.490;2023-07-31T13:45:14;7.70;;;7.10;;
14030;SDS011;7090;49.436;8.490;2023-07-31T13:47:40;8.75;;;8.15;;
14030;SDS011;7090;49.436;8.490;2023-07-31T13:50:05;8.32;;;7.82;;
14030;SDS011;7090;49.436;8.490;2023-07-31T13:52:31;8.63;;;7.82;;
14030;SDS011;7090;49.436;8.490;2023-07-31T13:54:57;8.57;;;7.80;;
14030;SDS011;7090;49.436;8.490;2023-07-31T13:57:22;8.40;;;7.57;;
14030;SDS011;7090;49.436;8.490;2023-07-31T13:59:48;8.50;;;7.70;;
14030;SDS011;7090;49.436;8.490;2023-07-31T14:02:14;8.68;;;8.18;;
14030;SDS011;7090;49.436;8.490;2023-07-31T14:04:40;8.93;;;8.20;;
14030;SDS011;7090;49.436;8.490;2023-07-31T14:07:06;7.68;;;7.22;;
14030;SDS011;7090;49.436;8.490;2023-07-31T14:09:31;12.25;;;7.95;;
14030;SDS011;7090;49.436;8.490;2023-07-31T14:11:57;8.73;;;8.23;;
14030;SDS011;7090;49.436;8.490;2023-07-31T14:14:23;8.50;;;7.93;;
14030;SDS011;7090;49.436;8.490;2023-07-31T14:16:48;7.18;;;6.88;;
14030;SDS011;7090;49.436;8.490;2023-07-31T14:19:14;7.50;;;7.20;;
14030;SDS011;7090;49.436;8.490;2023-07-31T14:21:39;7.43;;;7.13;;
14030;SDS011;7090;49.436;8.490;2023-07-31T14:24:05;8.38;;;7.78;;
14030;SDS011;7090;49.436;8.490;2023-07-31T14:26:31;8.15;;;7.68;;
14030;SDS011;7090;49.436;8.490;2023-07-31T14:28:56;8.20;;;7.68;;
14030;SDS011;7090;49.436;8.490;2023-07-31T14:31:22;8.68;;;7.97;;
14030;SDS011;7090;49.436;8.490;2023-07-31T14:33:48;8.63;;;7.78;;
14030;SDS011;7090;49.436;8.490;2023-07-31T14:36:14;7.32;;;7.03;;
14030;SDS011;7090;49.436;8.490;2023-07-31T14:38:39;8.05;;;7.55;;
14030;SDS011;7090;49.436;8.490;2023-07-31T14:41:05;8.00;;;7.60;;
14030;SDS011;7090;49.436;8.490;2023-07-31T14:43:30;8.35;;;7.78;;
14030;SDS011;7090;49.436;8.490;2023-07-31T14:45:56;7.82;;;7.32;;
14030;SDS011;7090;49.436;8.490;2023-07-31T14:48:24;8.30;;;7.65;;
14030;SDS011;7090;49.436;8.490;2023-07-31T14:50:50;8.07;;;7.50;;
14030;SDS011;7090;49.436;8.490;2023-07-31T14:53:16;8.60;;;7.90;;
14030;SDS011;7090;49.436;8.490;2023-07-31T14:55:41;8.30;;;7.80;;
14030;SDS011;7090;49.436;8.490;2023-07-31T14:58:07;8.50;;;7.88;;
14030;SDS011;7090;49.436;8.490;2023-07-31T15:00:35;8.30;;;7.63;;
14030;SDS011;7090;49.436;8.490;2023-07-31T15:03:01;8.63;;;8.02;;
14030;SDS011;7090;49.436;8.490;2023-07-31T15:05:27;7.50;;;7.10;;
14030;SDS011;7090;49.436;8.490;2023-07-31T15:07:53;8.50;;;7.90;;
14030;SDS011;7090;49.436;8.490;2023-07-31T15:10:18;7.15;;;6.75;;
14030;SDS011;7090;49.436;8.490;2023-07-31T15:12:44;7.95;;;7.50;;
14030;SDS011;7090;49.436;8.490;2023-07-31T15:15:09;11.15;;;7.85;;
14030;SDS011;7090;49.436;8.490;2023-07-31T15:17:35;7.68;;;6.88;;